Map

Track Data

SID SEASON NUMBER BASIN SUBBASIN NAME ISO_TIME NATURE LAT LON WMO_WIND WMO_PRES WMO_AGENCY TRACK_TYPE DIST2LAND LANDFALL IFLAG USA_AGENCY USA_ATCF_ID USA_LAT USA_LON USA_RECORD USA_STATUS USA_WIND USA_PRES USA_SSHS USA_R34_NE USA_R34_SE USA_R34_SW USA_R34_NW USA_R50_NE USA_R50_SE USA_R50_SW USA_R50_NW USA_R64_NE USA_R64_SE USA_R64_SW USA_R64_NW USA_POCI USA_ROCI USA_RMW USA_EYE TOKYO_LAT TOKYO_LON TOKYO_GRADE TOKYO_WIND TOKYO_PRES TOKYO_R50_DIR TOKYO_R50_LONG TOKYO_R50_SHORT TOKYO_R30_DIR TOKYO_R30_LONG TOKYO_R30_SHORT TOKYO_LAND CMA_LAT CMA_LON CMA_CAT CMA_WIND CMA_PRES HKO_LAT HKO_LON HKO_CAT HKO_WIND HKO_PRES NEWDELHI_LAT NEWDELHI_LON NEWDELHI_GRADE NEWDELHI_WIND NEWDELHI_PRES NEWDELHI_CI NEWDELHI_DP NEWDELHI_POCI REUNION_LAT REUNION_LON REUNION_TYPE REUNION_WIND REUNION_PRES REUNION_TNUM REUNION_CI REUNION_RMW REUNION_R34_NE REUNION_R34_SE REUNION_R34_SW REUNION_R34_NW REUNION_R50_NE REUNION_R50_SE REUNION_R50_SW REUNION_R50_NW REUNION_R64_NE REUNION_R64_SE REUNION_R64_SW REUNION_R64_NW BOM_LAT BOM_LON BOM_TYPE BOM_WIND BOM_PRES BOM_TNUM BOM_CI BOM_RMW BOM_R34_NE BOM_R34_SE BOM_R34_SW BOM_R34_NW BOM_R50_NE BOM_R50_SE BOM_R50_SW BOM_R50_NW BOM_R64_NE BOM_R64_SE BOM_R64_SW BOM_R64_NW BOM_ROCI BOM_POCI BOM_EYE BOM_POS_METHOD BOM_PRES_METHOD NADI_LAT NADI_LON NADI_CAT NADI_WIND NADI_PRES WELLINGTON_LAT WELLINGTON_LON WELLINGTON_WIND WELLINGTON_PRES DS824_LAT DS824_LON DS824_STAGE DS824_WIND DS824_PRES TD9636_LAT TD9636_LON TD9636_STAGE TD9636_WIND TD9636_PRES TD9635_LAT TD9635_LON TD9635_WIND TD9635_PRES TD9635_ROCI NEUMANN_LAT NEUMANN_LON NEUMANN_CLASS NEUMANN_WIND NEUMANN_PRES MLC_LAT MLC_LON MLC_CLASS MLC_WIND MLC_PRES USA_GUST BOM_GUST BOM_GUST_PER REUNION_GUST REUNION_GUST_PER USA_SEAHGT USA_SEARAD_NE USA_SEARAD_SE USA_SEARAD_SW USA_SEARAD_NW STORM_SPEED STORM_DIR
1928044S13044 1928 5 SI MM NOT_NAMED 1928-02-13 06:00:00 NR -12.6000 44.0000 reunion spur-merge 369 369 _____O________ -1 -12.6000 44.0000 99 9.90000 0 0
1928044S13044 1928 5 SI MM NOT_NAMED 1928-02-13 09:00:00 NR -12.5943 43.9982 spur-merge 369 369 _____P________ -1 -12.6625 44.0000 99 0 0
1928044S13044 1928 5 SI MM NOT_NAMED 1928-02-13 12:00:00 NR -12.5952 43.9966 spur-merge 369 369 _____P________ -1 -12.7250 44.0000 99 0 0
1928044S13044 1928 5 SI MM NOT_NAMED 1928-02-13 15:00:00 NR -12.6090 43.9953 spur-merge 369 369 _____P________ -1 -12.7875 44.0000 99 0 0
1928044S13044 1928 5 SI MM NOT_NAMED 1928-02-13 18:00:00 NR -12.6423 43.9945 spur-merge 369 369 _____P________ -1 -12.8500 44.0000 99 1 0
1928044S13044 1928 5 SI MM NOT_NAMED 1928-02-13 21:00:00 NR -12.7015 43.9944 spur-merge 369 368 _____P________ -1 -12.9125 44.0000 99 2 170
1928044S13044 1928 5 SI MM NOT_NAMED 1928-02-14 00:00:00 NR -12.7932 43.9952 spur-merge 368 366 _____P________ -1 -12.9750 44.0000 99 2 174
1928044S13044 1928 5 SI MM NOT_NAMED 1928-02-14 03:00:00 NR -12.9239 43.9970 spur-merge 366 345 _____P________ -1 -13.0375 44.0000 99 3 0
1928044S13044 1928 5 SI MM NOT_NAMED 1928-02-14 06:00:00 NR -13.1000 44.0000 reunion spur-merge 345 324 _____O________ -1 -13.1000 44.0000 99 9.90000 4 0
1928044S13044 1928 5 SI MM NOT_NAMED 1928-02-14 09:00:00 NR -13.3262 44.0046 spur-merge 324 293 _____P________ -1 -13.4624 44.0247 99 5 178
1928044S13044 1928 5 SI MM NOT_NAMED 1928-02-14 12:00:00 NR -13.6000 44.0121 spur-merge 293 263 _____P________ -1 -13.8249 44.0495 99 6 0
1928044S13044 1928 5 SI MM NOT_NAMED 1928-02-14 15:00:00 NR -13.9171 44.0239 spur-merge 263 223 _____P________ -1 -14.1875 44.0744 99 7 177
1928044S13044 1928 5 SI MM NOT_NAMED 1928-02-14 18:00:00 NR -14.2730 44.0414 spur-merge 223 189 _____P________ -1 -14.5501 44.0993 99 8 177
1928044S13044 1928 5 SI MM NOT_NAMED 1928-02-14 21:00:00 NR -14.6636 44.0663 spur-merge 180 138 _____P________ -1 -14.9127 44.1244 99 8 176
1928044S13044 1928 5 SI MM NOT_NAMED 1928-02-15 00:00:00 NR -15.0845 44.1000 spur-merge 138 95 _____P________ -1 -15.2752 44.1495 99 9 175
1928044S13044 1928 5 SI MM NOT_NAMED 1928-02-15 03:00:00 NR -15.5314 44.1440 spur-merge 95 39 _____P________ -1 -15.6376 44.1747 99 9 174
1928044S13044 1928 5 SI MM NOT_NAMED 1928-02-15 06:00:00 NR -16.0000 44.2000 reunion spur-merge 39 21 _____O________ -1 -16.0000 44.2000 99 9.90000 9 174
1928044S13044 1928 5 SI MM NOT_NAMED 1928-02-15 09:00:00 NR -16.4474 44.2504 spur-merge 10 0 ______________ -1 99 9 173
1928044S13044 1928 5 SI MM NOT_NAMED 1928-02-15 12:00:00 NR -16.9202 44.3107 spur-merge 0 0 ______________ -1 99 10 173
1928044S13044 1928 5 SI MM NOT_NAMED 1928-02-15 15:00:00 NR -17.4166 44.3831 spur-merge 0 0 ______________ -1 99 10 171
1928044S13044 1928 5 SI MM NOT_NAMED 1928-02-15 18:00:00 NR -17.9352 44.4696 spur-merge 0 0 ______________ -1 99 11 170
1928044S13044 1928 5 SI MM NOT_NAMED 1928-02-15 21:00:00 NR -18.4744 44.5723 spur-merge 0 0 ______________ -1 99 11 169
1928044S13044 1928 5 SI MM NOT_NAMED 1928-02-16 00:00:00 NR -19.0326 44.6934 spur-merge 0 ______________ -1 99 11 169

About IBTrACS Database

This database is a web-friendly format of International Best Track Archive for Climate Stewardship (IBTrACS), a global best track data archive curated by NOAA dating back to 1842.

Updated: 2021-10-21